Flight Track Log - Related Links

Times and Time Zones

All times are in EST time to prevent confusion due to time zone crossing. See the CSH9415 flight status page for this flight to view local times or setup timezone preferences in your user account.

Time Position Orientation Groundspeed Altitude Reporting Facility
EST Latitude Longitude Course Direction KTS MPH feet Rate Location/Type
Fri 08:35:00 PM 31.6364 121.0285 329° Northwest  Level Estimated
Fri 08:36:00 PM 31.6911 120.9898 329° Northwest  Level Estimated
Fri 08:37:00 PM 31.7459 120.9511 329° Northwest  Level Estimated
Fri 08:38:00 PM 31.8006 120.9123 329° Northwest  Level Estimated
Fri 08:39:00 PM 31.8553 120.8735 329° Northwest  Level Estimated
Fri 08:40:00 PM 31.9100 120.8346 329° Northwest  Level Estimated
Fri 08:41:00 PM 31.9647 120.7957 329° Northwest  Level Estimated
Fri 08:42:00 PM 32.0194 120.7568 329° Northwest  Level Estimated
Fri 08:43:00 PM 32.0741 120.7178 329° Northwest  Level Estimated
Fri 08:44:00 PM 32.1287 120.6787 329° Northwest  Level Estimated
Fri 08:45:00 PM 32.1834 120.6396 329° Northwest  Level Estimated
Fri 08:46:00 PM 32.2380 120.6004 329° Northwest  Level Estimated
Fri 08:47:00 PM 32.2927 120.5613 329° Northwest  Level Estimated
Fri 08:48:00 PM 32.3473 120.5220 329° Northwest  Level Estimated
Fri 08:49:00 PM 32.4019 120.4827 329° Northwest  Level Estimated
Fri 08:50:00 PM 32.4565 120.4434 329° Northwest  Level Estimated
Fri 08:51:00 PM 32.5111 120.4040 329° Northwest  Level Estimated
Fri 08:52:00 PM 32.5656 120.3646 329° Northwest  Level Estimated
Fri 08:53:00 PM 32.6202 120.3251 329° Northwest  Level Estimated
Fri 08:54:00 PM 32.6747 120.2856 329° Northwest  Level Estimated
Fri 08:55:00 PM 32.7292 120.2460 329° Northwest  Level Estimated
Fri 08:56:00 PM 32.7838 120.2064 329° Northwest  Level Estimated
Fri 08:57:00 PM 32.8383 120.1667 329° Northwest  Level Estimated
Fri 08:58:00 PM 32.8927 120.1270 329° Northwest  Level Estimated
Fri 08:59:00 PM 32.9472 120.0872 329° Northwest  Level Estimated
Fri 09:00:00 PM 33.0017 120.0474 328° Northwest  Level Estimated
Fri 09:01:00 PM 33.0561 120.0075 328° Northwest  Level Estimated
Fri 09:02:00 PM 33.1106 119.9676 328° Northwest  Level Estimated
Fri 09:03:00 PM 33.1650 119.9277 328° Northwest  Level Estimated
Fri 09:04:00 PM 33.2194 119.8876 328° Northwest  Level Estimated
Fri 09:05:00 PM 33.2738 119.8476 328° Northwest  Level Estimated
Fri 09:06:00 PM 33.3282 119.8074 328° Northwest  Level Estimated
Fri 09:07:00 PM 33.3826 119.7673 328° Northwest  Level Estimated
Fri 09:08:00 PM 33.4370 119.7271 328° Northwest  Level Estimated
Fri 09:09:00 PM 33.4913 119.6868 328° Northwest  Level Estimated
Fri 09:10:00 PM 33.5457 119.6465 328° Northwest  Level Estimated
Fri 09:11:00 PM 33.6000 119.6061 328° Northwest  Level Estimated
Fri 09:12:00 PM 33.6543 119.5657 328° Northwest  Level Estimated
Fri 09:13:00 PM 33.7086 119.5252 328° Northwest  Level Estimated
Fri 09:14:00 PM 33.7629 119.4847 328° Northwest  Level Estimated
Fri 09:15:00 PM 33.8172 119.4441 328° Northwest  Level Estimated
Fri 09:16:00 PM 33.8714 119.4035 328° Northwest  Level Estimated
Fri 09:17:00 PM 33.9257 119.3628 328° Northwest  Level Estimated
Fri 09:18:00 PM 33.9799 119.3221 328° Northwest  Level Estimated
Fri 09:19:00 PM 34.0341 119.2813 328° Northwest  Level Estimated
Fri 09:20:00 PM 34.0883 119.2405 328° Northwest  Level Estimated
Fri 09:21:00 PM 34.1425 119.1996 328° Northwest  Level Estimated
Fri 09:22:00 PM 34.1967 119.1587 328° Northwest  Level Estimated
Fri 09:23:00 PM 34.2509 119.1177 328° Northwest  Level Estimated
Fri 09:24:00 PM 34.3050 119.0766 328° Northwest  Level Estimated
Fri 09:25:00 PM 34.3591 119.0355 328° Northwest  Level Estimated

Login

Don't have an account? Register now (free) for customized features, flight alerts, and more!